createdAt,value
2023-04-09T00:00:30.885Z,19275.3086
2023-04-09T00:01:32.527Z,19273.5391
2023-04-09T00:02:34.134Z,19280.3848
2023-04-09T00:03:35.975Z,19282.5391
2023-04-09T00:04:37.512Z,19278.3848
2023-04-09T00:05:39.045Z,19278.6914
2023-04-09T00:06:40.729Z,19280.1543
2023-04-09T00:07:44.498Z,19279.8457
2023-04-09T00:08:44.001Z,19287.6152
2023-04-09T00:09:45.795Z,19289.0762
2023-04-09T00:10:47.419Z,19286.7695
2023-04-09T00:11:49.014Z,19290.4609
2023-04-09T00:12:50.658Z,19288.0762
2023-04-09T00:13:52.355Z,19293.3848
2023-04-09T00:14:53.949Z,19289.6914
2023-04-09T00:15:55.639Z,19291.8457
2023-04-09T00:16:57.327Z,19292.9238
2023-04-09T00:17:58.941Z,19291.3086
2023-04-09T00:19:00.566Z,19293.1543
2023-04-09T00:20:02.230Z,19290.3848
2023-04-09T00:21:03.874Z,19296.6152
2023-04-09T00:22:05.538Z,19298.5391
2023-04-09T00:23:07.217Z,19297.9238
2023-04-09T00:24:08.741Z,19295.3848
2023-04-09T00:25:10.451Z,19299.0000
2023-04-09T00:26:12.178Z,19299.9238
2023-04-09T00:27:13.870Z,19300.3848
2023-04-09T00:28:15.471Z,19296.8457
2023-04-09T00:29:17.208Z,19299.6152
2023-04-09T00:30:18.800Z,19301.8457
2023-04-09T00:31:20.877Z,19300.1543
2023-04-09T00:32:22.075Z,19300.1543
2023-04-09T00:33:23.652Z,19305.6914
2023-04-09T00:34:25.336Z,19305.6152
2023-04-09T00:35:26.974Z,19305.6914
2023-04-09T00:36:28.728Z,19302.0762
2023-04-09T00:37:30.315Z,19301.0000
2023-04-09T00:38:31.999Z,19306.6152
2023-04-09T00:39:33.621Z,19308.7695
2023-04-09T00:40:35.255Z,19308.2305
2023-04-09T00:41:37.009Z,19308.7695
2023-04-09T00:42:38.590Z,19309.3848
2023-04-09T00:43:40.274Z,19312.8457
2023-04-09T00:44:41.810Z,19311.0000
2023-04-09T00:45:43.536Z,19307.2305
2023-04-09T00:46:45.106Z,19312.2305
2023-04-09T00:47:47.383Z,19311.9238
2023-04-09T00:48:48.510Z,19315.2305
2023-04-09T00:49:50.179Z,19309.5391
2023-04-09T00:50:51.748Z,19310.1543
2023-04-09T00:51:53.387Z,19310.8457
2023-04-09T00:52:55.154Z,19312.2305
2023-04-09T00:53:56.788Z,19316.4609
2023-04-09T00:54:58.439Z,19315.4609
2023-04-09T00:56:00.031Z,19314.9238
2023-04-09T00:57:01.678Z,19314.8457
2023-04-09T00:58:03.432Z,19315.0000
2023-04-09T00:59:05.370Z,19315.6152
2023-04-09T01:00:06.718Z,19320.9238
2023-04-09T01:01:08.398Z,19320.2305
2023-04-09T01:02:10.922Z,19317.9238
2023-04-09T01:03:12.029Z,19304.4609
2023-04-09T01:04:13.346Z,19270.9238
2023-04-09T01:05:14.928Z,19269.7695
2023-04-09T01:06:16.538Z,19268.5391
2023-04-09T01:07:18.281Z,19271.4609
2023-04-09T01:08:20.103Z,19275.9238
2023-04-09T01:09:21.565Z,19279.0762
2023-04-09T01:10:23.206Z,19287.5391
2023-04-09T01:11:24.982Z,19283.6152
2023-04-09T01:12:26.511Z,19288.5391
2023-04-09T01:13:28.223Z,19283.0762
2023-04-09T01:14:29.940Z,19286.1543
2023-04-09T01:15:31.524Z,19287.9238
2023-04-09T01:16:33.136Z,19290.2305
2023-04-09T01:17:34.892Z,19291.3086
2023-04-09T01:18:36.505Z,19291.0000
2023-04-09T01:19:38.124Z,19295.8457
2023-04-09T01:20:39.828Z,19293.9238
2023-04-09T01:21:41.423Z,19294.8457
2023-04-09T01:22:43.078Z,19294.9238
2023-04-09T01:23:44.791Z,19297.8457
2023-04-09T01:24:46.398Z,19300.3848
2023-04-09T01:25:48.068Z,19300.0000
2023-04-09T01:26:49.701Z,19300.1543
2023-04-09T01:27:51.345Z,19299.4609
2023-04-09T01:28:53.459Z,19303.0762
2023-04-09T01:29:54.675Z,19302.1543
2023-04-09T01:30:56.455Z,19307.0000
2023-04-09T01:31:57.966Z,19308.7695
2023-04-09T01:33:00.036Z,19310.3848
2023-04-09T01:34:01.414Z,19310.2305
2023-04-09T01:35:02.905Z,19306.9238
2023-04-09T01:36:04.719Z,19305.3848
2023-04-09T01:37:06.294Z,19309.4609
2023-04-09T01:38:07.898Z,19315.3086
2023-04-09T01:39:09.611Z,19313.0762
2023-04-09T01:40:11.340Z,19312.3848
2023-04-09T01:41:12.763Z,19311.7695
2023-04-09T01:42:14.450Z,19315.3086
2023-04-09T01:43:16.089Z,19316.5391
2023-04-09T01:44:17.733Z,19317.2305
2023-04-09T01:45:19.460Z,19317.1543
2023-04-09T01:46:21.134Z,19314.3848
2023-04-09T01:47:22.701Z,19313.8457
2023-04-09T01:48:24.355Z,19314.0000
2023-04-09T01:49:26.155Z,19313.0762
2023-04-09T01:50:27.827Z,19320.0762
2023-04-09T01:51:29.362Z,19319.8457
2023-04-09T01:52:31.778Z,19321.0762
2023-04-09T01:53:32.756Z,19321.5391
2023-04-09T01:54:34.509Z,19312.5391
2023-04-09T01:55:36.046Z,19318.7695
2023-04-09T01:56:37.760Z,19320.9238
2023-04-09T01:57:39.326Z,19325.6152
2023-04-09T01:58:41.040Z,19325.3848
2023-04-09T01:59:42.646Z,19325.3086
2023-04-09T02:00:45.286Z,19324.9238
2023-04-09T02:01:46.966Z,19319.9238
2023-04-09T02:02:47.749Z,19322.6152
2023-04-09T02:03:49.389Z,19328.6914
2023-04-09T02:04:51.165Z,19326.0762
2023-04-09T02:05:52.939Z,19325.9238
2023-04-09T02:06:54.257Z,19325.8457
2023-04-09T02:07:55.895Z,19326.6152
2023-04-09T02:08:57.613Z,19321.8457
2023-04-09T02:09:59.283Z,19297.8457
2023-04-09T02:11:00.840Z,19274.9238
2023-04-09T02:12:02.542Z,19272.5391
2023-04-09T02:13:04.157Z,19276.6914
2023-04-09T02:14:05.990Z,19279.2305
2023-04-09T02:15:07.595Z,19278.9238
2023-04-09T02:16:09.178Z,19283.0000
2023-04-09T02:17:10.796Z,19288.3086
2023-04-09T02:18:12.451Z,19287.3086
2023-04-09T02:19:14.076Z,19290.6914
2023-04-09T02:20:15.820Z,19291.0762
2023-04-09T02:21:17.353Z,19290.2305
2023-04-09T02:22:19.019Z,19290.8457
2023-04-09T02:23:20.728Z,19297.6914
2023-04-09T02:24:22.447Z,19297.0000
2023-04-09T02:25:24.078Z,19297.0000
2023-04-09T02:26:25.642Z,19298.3848
2023-04-09T02:27:27.406Z,19300.4609
2023-04-09T02:28:29.049Z,19299.0000
2023-04-09T02:29:30.649Z,19300.3086
2023-04-09T02:30:32.343Z,19302.7695
2023-04-09T02:31:34.023Z,19311.0000
2023-04-09T02:32:35.744Z,19310.6914
2023-04-09T02:33:37.353Z,19311.9238
2023-04-09T02:34:39.059Z,19306.3848
2023-04-09T02:35:40.670Z,19308.0000
2023-04-09T02:36:42.334Z,19308.6914
2023-04-09T02:37:44.014Z,19315.1543
2023-04-09T02:38:45.604Z,19314.9238
2023-04-09T02:39:47.406Z,19316.9238
2023-04-09T02:40:48.948Z,19317.9238
2023-04-09T02:41:50.642Z,19317.0000
2023-04-09T02:42:52.172Z,19316.0000
2023-04-09T02:43:53.910Z,19319.6914
2023-04-09T02:44:55.577Z,19324.0762
2023-04-09T02:45:57.459Z,19322.3086
2023-04-09T02:46:58.780Z,19321.0000
2023-04-09T02:48:00.501Z,19319.8457
2023-04-09T02:49:02.858Z,19319.3848
2023-04-09T02:50:03.897Z,19322.4609
2023-04-09T02:51:05.597Z,19328.1543
2023-04-09T02:52:07.114Z,19328.6914
2023-04-09T02:53:08.894Z,19326.8457
2023-04-09T02:54:10.412Z,19330.3086
2023-04-09T02:55:12.069Z,19334.0762
2023-04-09T02:56:13.815Z,19332.0762
2023-04-09T02:57:15.261Z,19331.9238
2023-04-09T02:58:16.992Z,19332.6152
2023-04-09T02:59:18.727Z,19327.3848
2023-04-09T03:00:20.348Z,19324.6914
2023-04-09T03:01:22.135Z,19319.3086
2023-04-09T03:02:23.818Z,19320.4609
2023-04-09T03:03:26.040Z,19319.3086
2023-04-09T03:04:26.980Z,19320.4609
2023-04-09T03:05:28.520Z,19322.9238
2023-04-09T03:06:30.294Z,19323.6914
2023-04-09T03:07:31.856Z,19324.7695
2023-04-09T03:08:33.504Z,19323.3086
2023-04-09T03:09:35.157Z,19326.0000
2023-04-09T03:10:36.820Z,19323.4609
2023-04-09T03:11:38.536Z,19324.3086
2023-04-09T03:12:40.128Z,19321.0762
2023-04-09T03:13:41.820Z,19325.8457
2023-04-09T03:14:43.483Z,19324.0000
2023-04-09T03:15:45.125Z,19324.3848
2023-04-09T03:16:46.781Z,19323.9238
2023-04-09T03:17:48.433Z,19316.0762
2023-04-09T03:18:50.256Z,19324.1543
2023-04-09T03:19:51.686Z,19324.8457
2023-04-09T03:20:53.341Z,19325.1543
2023-04-09T03:21:55.031Z,19326.3848
2023-04-09T03:22:56.638Z,19323.3848
2023-04-09T03:23:58.321Z,19324.3848
2023-04-09T03:24:59.983Z,19325.2305
2023-04-09T03:26:01.616Z,19329.8457
2023-04-09T03:27:03.362Z,19327.0000
2023-04-09T03:28:04.876Z,19324.6152
2023-04-09T03:29:06.616Z,19319.7695
2023-04-09T03:30:08.235Z,19325.9238
2023-04-09T03:31:09.964Z,19324.1543
2023-04-09T03:32:11.545Z,19328.7695
2023-04-09T03:33:13.187Z,19327.6914
2023-04-09T03:34:14.836Z,19326.6152
2023-04-09T03:35:16.464Z,19328.5391
2023-04-09T03:36:18.091Z,19325.4609
2023-04-09T03:37:19.818Z,19322.2305
2023-04-09T03:38:21.408Z,19323.9238
2023-04-09T03:39:23.121Z,19327.3086
2023-04-09T03:40:24.740Z,19326.4609
2023-04-09T03:41:26.469Z,19328.6914
2023-04-09T03:42:27.998Z,19330.0000
2023-04-09T03:43:29.703Z,19328.6914
2023-04-09T03:44:31.954Z,19331.8457
2023-04-09T03:45:33.017Z,19326.1543
2023-04-09T03:46:34.750Z,19323.6152
2023-04-09T03:47:36.354Z,19328.6152
2023-04-09T03:48:38.009Z,19322.5391
2023-04-09T03:49:39.614Z,19326.4609
2023-04-09T03:50:41.252Z,19328.1543
2023-04-09T03:51:42.937Z,19325.3848
2023-04-09T03:52:44.651Z,19326.0000
2023-04-09T03:53:46.335Z,19326.5391
2023-04-09T03:54:47.962Z,19331.4609
2023-04-09T03:55:49.626Z,19327.1543
2023-04-09T03:56:52.068Z,19325.7695
2023-04-09T03:57:52.934Z,19325.9238
2023-04-09T03:58:54.881Z,19323.6152
2023-04-09T03:59:56.248Z,19325.3848
2023-04-09T04:00:57.769Z,19327.6914
2023-04-09T04:01:59.549Z,19327.1543
2023-04-09T04:03:01.372Z,19326.8457
2023-04-09T04:04:02.941Z,19322.2305
2023-04-09T04:05:04.493Z,19323.6914
2023-04-09T04:06:06.160Z,19322.9238
2023-04-09T04:07:07.804Z,19325.7695
2023-04-09T04:08:09.423Z,19325.5391
2023-04-09T04:09:11.023Z,19325.3848
2023-04-09T04:10:12.794Z,19325.2305
2023-04-09T04:11:14.374Z,19322.8457
2023-04-09T04:12:16.020Z,19324.0000
2023-04-09T04:13:17.707Z,19327.2305
2023-04-09T04:14:19.355Z,19324.3848
2023-04-09T04:15:21.044Z,19326.1543
2023-04-09T04:16:22.697Z,19323.4609
2023-04-09T04:17:24.341Z,19321.8457
2023-04-09T04:18:25.957Z,19321.0000
2023-04-09T04:19:27.614Z,19319.3848
2023-04-09T04:20:29.244Z,19324.2305
2023-04-09T04:21:30.919Z,19319.6914
2023-04-09T04:22:32.602Z,19322.3848
2023-04-09T04:23:34.250Z,19324.1543
2023-04-09T04:24:35.901Z,19315.8457
2023-04-09T04:25:37.541Z,19322.3086
2023-04-09T04:26:39.229Z,19322.6152
2023-04-09T04:27:40.893Z,19322.3848
2023-04-09T04:28:42.556Z,19323.0000
2023-04-09T04:29:44.141Z,19323.8457
2023-04-09T04:30:45.867Z,19320.3086
2023-04-09T04:31:47.497Z,19319.0000
2023-04-09T04:32:49.097Z,19318.3086
2023-04-09T04:33:50.782Z,19320.4609
2023-04-09T04:34:52.425Z,19324.0762
2023-04-09T04:35:54.144Z,19323.2305
2023-04-09T04:36:55.633Z,19328.6152
2023-04-09T04:37:57.399Z,19320.6152
2023-04-09T04:38:59.067Z,19323.0762
2023-04-09T04:40:00.666Z,19319.6152
2023-04-09T04:41:02.306Z,19320.0000
2023-04-09T04:42:03.947Z,19318.0000
2023-04-09T04:43:05.665Z,19321.6152
2023-04-09T04:44:07.311Z,19320.6152
2023-04-09T04:45:09.052Z,19323.5391
2023-04-09T04:46:10.622Z,19319.7695
2023-04-09T04:47:12.244Z,19318.6914
2023-04-09T04:48:13.917Z,19316.6914
2023-04-09T04:49:16.324Z,19321.1543
2023-04-09T04:50:17.256Z,19314.6914
2023-04-09T04:51:18.841Z,19319.1543
2023-04-09T04:52:20.475Z,19317.0000
2023-04-09T04:53:22.139Z,19318.1543
2023-04-09T04:54:23.842Z,19318.1543
2023-04-09T04:55:26.505Z,19320.7695
2023-04-09T04:56:27.114Z,19320.0762
2023-04-09T04:57:28.939Z,19317.2305
2023-04-09T04:58:30.423Z,19313.9238
2023-04-09T04:59:32.200Z,19315.9238
2023-04-09T05:00:33.734Z,19316.6914
2023-04-09T05:01:35.418Z,19317.0000
2023-04-09T05:02:37.186Z,19317.6152
2023-04-09T05:03:38.779Z,19312.5391
2023-04-09T05:04:40.392Z,19317.0000
2023-04-09T05:05:42.002Z,19316.6152
2023-04-09T05:06:43.662Z,19312.9238
2023-04-09T05:07:45.306Z,19316.0762
2023-04-09T05:08:47.009Z,19315.0000
2023-04-09T05:09:48.626Z,19310.0762
2023-04-09T05:10:50.220Z,19311.6914
2023-04-09T05:11:51.930Z,19309.3848
2023-04-09T05:12:53.611Z,19309.1543
2023-04-09T05:13:55.186Z,19305.1543
2023-04-09T05:14:56.986Z,19308.6152
2023-04-09T05:15:58.630Z,19306.5391
2023-04-09T05:17:00.216Z,19305.6914
2023-04-09T05:18:01.925Z,19301.4609
2023-04-09T05:19:03.528Z,19302.0762
2023-04-09T05:20:05.949Z,19298.8457
2023-04-09T05:21:07.457Z,19299.5391
2023-04-09T05:22:08.464Z,19301.6914
2023-04-09T05:23:10.082Z,19301.6152
2023-04-09T05:24:11.737Z,19298.9238
2023-04-09T05:25:13.410Z,19297.3086
2023-04-09T05:26:14.995Z,19299.6152
2023-04-09T05:27:16.722Z,19297.8457
2023-04-09T05:28:18.434Z,19302.6914
2023-04-09T05:29:20.058Z,19304.6152
2023-04-09T05:30:21.724Z,19302.1543
2023-04-09T05:31:23.257Z,19304.8457
2023-04-09T05:32:25.221Z,19301.2305
2023-04-09T05:33:26.679Z,19301.3086
2023-04-09T05:34:28.265Z,19299.6152
2023-04-09T05:35:29.983Z,19299.6152
2023-04-09T05:36:31.577Z,19291.1543
2023-04-09T05:37:33.499Z,19291.4609
2023-04-09T05:38:34.965Z,19291.3086
2023-04-09T05:39:37.502Z,19296.3848
2023-04-09T05:40:38.298Z,19295.4609
2023-04-09T05:41:39.857Z,19293.1543
2023-04-09T05:42:41.537Z,19297.4609
2023-04-09T05:43:43.439Z,19292.4609
2023-04-09T05:44:44.857Z,19291.6914
2023-04-09T05:45:46.718Z,19295.0762
2023-04-09T05:46:48.189Z,19286.1543
2023-04-09T05:47:49.824Z,19288.7695
2023-04-09T05:48:51.595Z,19286.0000
2023-04-09T05:49:53.246Z,19286.9238
2023-04-09T05:50:55.841Z,19289.0762
2023-04-09T05:51:56.517Z,19290.0000
2023-04-09T05:52:58.191Z,19288.0762
2023-04-09T05:53:59.858Z,19281.3086
2023-04-09T05:55:01.492Z,19281.0000
2023-04-09T05:56:03.126Z,19279.9238
2023-04-09T05:57:04.811Z,19278.9238
2023-04-09T05:58:06.499Z,19285.6914
2023-04-09T05:59:07.995Z,19280.5391
2023-04-09T06:00:10.102Z,19279.0000
2023-04-09T06:01:11.356Z,19277.3848
2023-04-09T06:02:13.004Z,19278.8457
2023-04-09T06:03:14.777Z,19281.9238
2023-04-09T06:04:16.406Z,19280.7695
2023-04-09T06:05:18.581Z,19275.2305
2023-04-09T06:06:19.632Z,19269.1543
2023-04-09T06:07:21.241Z,19277.8457
2023-04-09T06:08:22.958Z,19277.8457
2023-04-09T06:09:24.612Z,19275.2305
2023-04-09T06:10:26.537Z,19277.0000
2023-04-09T06:11:28.009Z,19267.2305
2023-04-09T06:12:29.911Z,19270.7695
2023-04-09T06:13:31.202Z,19272.4609
2023-04-09T06:14:32.882Z,19274.4609
2023-04-09T06:15:34.555Z,19276.1543
2023-04-09T06:16:36.130Z,19270.9238
2023-04-09T06:17:37.804Z,19271.8457
2023-04-09T06:18:39.611Z,19269.0762
2023-04-09T06:19:41.170Z,19272.7695
2023-04-09T06:20:42.911Z,19269.0762
2023-04-09T06:21:44.297Z,19272.2305
2023-04-09T06:22:45.987Z,19270.6152
2023-04-09T06:23:47.642Z,19264.8457
2023-04-09T06:24:49.279Z,19263.7695
2023-04-09T06:25:50.972Z,19270.0000
2023-04-09T06:26:52.607Z,19266.6152
2023-04-09T06:27:54.212Z,19267.8457
2023-04-09T06:28:55.877Z,19266.6914
2023-04-09T06:29:57.550Z,19260.6914
2023-04-09T06:30:59.300Z,19260.8457
2023-04-09T06:32:00.786Z,19262.6152
2023-04-09T06:33:02.572Z,19266.8457
2023-04-09T06:34:04.103Z,19266.2305
2023-04-09T06:35:05.826Z,19261.0000
2023-04-09T06:36:08.484Z,19258.2305
2023-04-09T06:37:09.021Z,19259.2305
2023-04-09T06:38:11.362Z,19263.0000
2023-04-09T06:39:13.168Z,19258.2305
2023-04-09T06:40:14.071Z,19262.3848
2023-04-09T06:41:15.930Z,19260.9238
2023-04-09T06:42:17.373Z,19255.8457
2023-04-09T06:43:18.964Z,19260.0000
2023-04-09T06:44:20.670Z,19258.7695
2023-04-09T06:45:22.247Z,19255.9238
2023-04-09T06:46:24.033Z,19256.1543
2023-04-09T06:47:25.621Z,19257.5391
2023-04-09T06:48:27.930Z,19256.2305
2023-04-09T06:49:28.893Z,19253.9238
2023-04-09T06:50:30.557Z,19257.8457
2023-04-09T06:51:32.541Z,19257.6914
2023-04-09T06:52:33.937Z,19257.6152
2023-04-09T06:53:35.519Z,19255.6914
2023-04-09T06:54:37.991Z,19255.8457
2023-04-09T06:55:38.885Z,19250.4609
2023-04-09T06:56:40.962Z,19254.0000
2023-04-09T06:57:42.143Z,19256.0000
2023-04-09T06:58:43.837Z,19258.1543
2023-04-09T06:59:45.486Z,19256.6914
2023-04-09T07:00:47.089Z,19254.0000
2023-04-09T07:01:49.385Z,19250.7695
2023-04-09T07:02:50.673Z,19250.3848
2023-04-09T07:03:52.625Z,19254.7695
2023-04-09T07:04:53.729Z,19252.9238
2023-04-09T07:05:55.432Z,19246.6914
2023-04-09T07:06:58.150Z,19249.7695
2023-04-09T07:07:58.703Z,19248.3848
2023-04-09T07:09:00.461Z,19246.7695
2023-04-09T07:10:02.019Z,19250.4609
2023-04-09T07:11:03.669Z,19249.0762
2023-04-09T07:12:05.386Z,19246.7695
2023-04-09T07:13:07.495Z,19246.0000
2023-04-09T07:14:08.625Z,19247.6914
2023-04-09T07:15:10.318Z,19246.0000
2023-04-09T07:16:11.943Z,19247.3086
2023-04-09T07:17:13.634Z,19246.6914
2023-04-09T07:18:15.265Z,19245.6914
2023-04-09T07:19:16.777Z,19242.2305
2023-04-09T07:20:18.566Z,19245.2305
2023-04-09T07:21:20.165Z,19246.3086
2023-04-09T07:22:22.128Z,19246.0762
2023-04-09T07:23:23.577Z,19243.6914
2023-04-09T07:24:25.301Z,19242.6914
2023-04-09T07:25:26.778Z,19240.6152
2023-04-09T07:26:28.509Z,19239.7695
2023-04-09T07:27:30.101Z,19239.5391
2023-04-09T07:28:31.757Z,19242.0762
2023-04-09T07:29:33.586Z,19242.0762
2023-04-09T07:30:35.013Z,19239.4609
2023-04-09T07:31:36.619Z,19238.5391
2023-04-09T07:32:38.444Z,19236.9238
2023-04-09T07:33:39.957Z,19237.3086
2023-04-09T07:34:41.597Z,19238.8457
2023-04-09T07:35:43.216Z,19238.0762
2023-04-09T07:36:44.954Z,19234.1543
2023-04-09T07:37:47.003Z,19235.0000
2023-04-09T07:38:48.551Z,19235.0000
2023-04-09T07:39:49.888Z,19243.8457
2023-04-09T07:40:51.902Z,19239.3086
2023-04-09T07:41:53.148Z,19242.0762
2023-04-09T07:42:54.834Z,19240.0000
2023-04-09T07:43:56.565Z,19236.8457
2023-04-09T07:44:58.250Z,19241.0762
2023-04-09T07:45:59.853Z,19239.3086
2023-04-09T07:47:01.557Z,19243.3848
2023-04-09T07:48:03.510Z,19242.4609
2023-04-09T07:49:04.943Z,19237.7695
2023-04-09T07:50:06.351Z,19239.0762
2023-04-09T07:51:08.934Z,19241.6152
2023-04-09T07:52:09.666Z,19245.3086
2023-04-09T07:53:12.004Z,19246.0762
2023-04-09T07:54:13.094Z,19240.7695
2023-04-09T07:55:15.154Z,19238.1543
2023-04-09T07:56:16.223Z,19242.0000
2023-04-09T07:57:17.869Z,19241.1543
2023-04-09T07:58:19.613Z,19247.9238
2023-04-09T07:59:21.217Z,19249.8457
2023-04-09T08:00:22.856Z,19239.4609
2023-04-09T08:01:24.508Z,19236.0762
2023-04-09T08:02:26.364Z,19245.6152
2023-04-09T08:03:28.115Z,19247.0000
2023-04-09T08:04:29.487Z,19245.0000
2023-04-09T08:05:31.142Z,19246.3086
2023-04-09T08:06:32.737Z,19242.0000
2023-04-09T08:07:34.482Z,19244.3848
2023-04-09T08:08:36.103Z,19248.2305
2023-04-09T08:09:37.761Z,19251.4609
2023-04-09T08:10:39.368Z,19248.8457
2023-04-09T08:11:40.984Z,19248.2305
2023-04-09T08:12:42.706Z,19240.7695
2023-04-09T08:13:44.622Z,19244.5391
2023-04-09T08:14:45.940Z,19249.3848
2023-04-09T08:15:47.635Z,19253.2305
2023-04-09T08:16:49.372Z,19250.9238
2023-04-09T08:17:51.497Z,19247.4609
2023-04-09T08:18:52.932Z,19242.2305
2023-04-09T08:19:54.586Z,19249.4609
2023-04-09T08:20:55.839Z,19252.3086
2023-04-09T08:21:57.567Z,19257.3086
2023-04-09T08:22:59.207Z,19254.6152
2023-04-09T08:24:00.833Z,19247.9238
2023-04-09T08:25:03.537Z,19247.0762
2023-04-09T08:26:04.073Z,19256.1543
2023-04-09T08:27:05.748Z,19257.0762
2023-04-09T08:28:07.410Z,19255.1543
2023-04-09T08:29:09.109Z,19249.6914
2023-04-09T08:30:10.730Z,19250.1543
2023-04-09T08:31:12.448Z,19245.6914
2023-04-09T08:32:14.045Z,19252.2305
2023-04-09T08:33:15.641Z,19255.4609
2023-04-09T08:34:17.584Z,19253.8457
2023-04-09T08:35:19.058Z,19250.7695
2023-04-09T08:36:21.593Z,19249.1543
2023-04-09T08:37:22.419Z,19247.7695
2023-04-09T08:38:24.094Z,19257.3086
2023-04-09T08:39:25.792Z,19254.1543
2023-04-09T08:40:27.581Z,19254.3086
2023-04-09T08:41:28.944Z,19250.0762
2023-04-09T08:42:30.545Z,19248.3086
2023-04-09T08:43:52.531Z,19252.3086
2023-04-09T08:44:33.963Z,19252.4160
2023-04-09T08:45:35.604Z,19253.4609
2023-04-09T08:46:37.147Z,19250.8457
2023-04-09T08:47:38.934Z,19247.5391
2023-04-09T08:48:40.586Z,19245.9238
2023-04-09T08:49:43.034Z,19244.3086
2023-04-09T08:50:43.767Z,19247.3848
2023-04-09T08:51:45.450Z,19251.5391
2023-04-09T08:52:47.132Z,19253.7695
2023-04-09T08:53:48.723Z,19250.5391
2023-04-09T08:54:50.447Z,19245.0762
2023-04-09T08:55:53.152Z,19241.6914
2023-04-09T08:56:53.812Z,19236.4609
2023-04-09T08:57:56.094Z,19232.4609
2023-04-09T08:58:57.139Z,19221.4609
2023-04-09T08:59:59.121Z,19223.4609
2023-04-09T09:01:00.488Z,19215.0000
2023-04-09T09:02:02.087Z,19224.0000
2023-04-09T09:03:03.824Z,19227.1543
2023-04-09T09:04:05.380Z,19222.6914
2023-04-09T09:05:07.163Z,19221.2305
2023-04-09T09:06:08.646Z,19215.9238
2023-04-09T09:07:10.376Z,19212.2305
2023-04-09T09:08:12.607Z,19223.0762
2023-04-09T09:09:13.576Z,19235.8457
2023-04-09T09:10:15.714Z,19234.1543
2023-04-09T09:11:16.933Z,19234.3086
2023-04-09T09:12:18.654Z,19231.4609
2023-04-09T09:13:20.266Z,19233.6152
2023-04-09T09:14:21.947Z,19237.6152
2023-04-09T09:15:23.714Z,19243.1543
2023-04-09T09:16:25.187Z,19236.4609
2023-04-09T09:17:26.947Z,19233.6914
2023-04-09T09:18:28.521Z,19229.2305
2023-04-09T09:19:30.656Z,19234.9238
2023-04-09T09:20:32.326Z,19238.3086
2023-04-09T09:21:33.591Z,19240.6152
2023-04-09T09:22:35.148Z,19241.0762
2023-04-09T09:23:36.880Z,19239.8457
2023-04-09T09:24:38.494Z,19230.3086
2023-04-09T09:25:40.128Z,19232.6914
2023-04-09T09:26:41.850Z,19238.4609
2023-04-09T09:27:43.402Z,19236.4609
2023-04-09T09:28:45.050Z,19237.5391
2023-04-09T09:29:46.714Z,19233.3848
2023-04-09T09:30:49.526Z,19235.3086
2023-04-09T09:31:50.079Z,19238.6152
2023-04-09T09:32:51.765Z,19243.0000
2023-04-09T09:33:53.308Z,19242.2305
2023-04-09T09:34:54.874Z,19235.1543
2023-04-09T09:35:56.730Z,19236.1543
2023-04-09T09:36:58.268Z,19232.3848
2023-04-09T09:37:59.954Z,19240.0000
2023-04-09T09:39:01.586Z,19244.8457
2023-04-09T09:40:03.180Z,19239.9238
2023-04-09T09:41:04.878Z,19233.5391
2023-04-09T09:42:06.482Z,19235.2305
2023-04-09T09:43:08.205Z,19232.2305
2023-04-09T09:44:09.701Z,19236.8457
2023-04-09T09:45:11.454Z,19233.8457
2023-04-09T09:46:13.231Z,19235.8457
2023-04-09T09:47:14.836Z,19229.0762
2023-04-09T09:48:16.501Z,19229.3086
2023-04-09T09:49:18.112Z,19227.3848
2023-04-09T09:50:19.693Z,19237.7695
2023-04-09T09:51:21.394Z,19240.3848
2023-04-09T09:52:23.084Z,19236.8457
2023-04-09T09:53:24.665Z,19233.4609
2023-04-09T09:54:26.365Z,19230.8457
2023-04-09T09:55:28.144Z,19239.2305
2023-04-09T09:56:29.792Z,19238.9238
2023-04-09T09:57:31.421Z,19242.4609
2023-04-09T09:58:33.094Z,19239.1543
2023-04-09T09:59:34.674Z,19231.6914
2023-04-09T10:00:36.359Z,19235.8457
2023-04-09T10:01:38.148Z,19236.6914
2023-04-09T10:02:39.699Z,19242.2305
2023-04-09T10:03:41.372Z,19242.6152
2023-04-09T10:04:43.068Z,19237.0000
2023-04-09T10:05:44.583Z,19231.1543
2023-04-09T10:06:46.354Z,19232.0000
2023-04-09T10:07:47.885Z,19241.0762
2023-04-09T10:08:49.710Z,19240.5391
2023-04-09T10:09:51.214Z,19237.8457
2023-04-09T10:10:52.991Z,19234.0762
2023-04-09T10:11:54.670Z,19228.4609
2023-04-09T10:12:56.476Z,19232.0762
2023-04-09T10:13:57.795Z,19234.8457
2023-04-09T10:14:59.510Z,19241.2305
2023-04-09T10:16:01.144Z,19236.0000
2023-04-09T10:17:02.856Z,19233.3086
2023-04-09T10:18:04.475Z,19231.0000
2023-04-09T10:19:06.075Z,19231.9238
2023-04-09T10:20:07.722Z,19234.3848
2023-04-09T10:21:09.369Z,19237.3086
2023-04-09T10:22:11.052Z,19234.0000
2023-04-09T10:23:13.215Z,19232.3848
2023-04-09T10:24:14.278Z,19229.0000
2023-04-09T10:25:15.984Z,19229.4609
2023-04-09T10:26:17.716Z,19235.3848
2023-04-09T10:27:19.390Z,19236.4609
2023-04-09T10:28:20.963Z,19234.8457
2023-04-09T10:29:22.650Z,19232.6152
2023-04-09T10:30:24.220Z,19228.8457
2023-04-09T10:31:25.908Z,19232.1543
2023-04-09T10:32:28.604Z,19237.6914
2023-04-09T10:33:29.245Z,19241.2305
2023-04-09T10:34:30.939Z,19238.8457
2023-04-09T10:35:32.475Z,19229.0762
2023-04-09T10:36:34.165Z,19227.6152
2023-04-09T10:37:35.873Z,19223.3848
2023-04-09T10:38:37.471Z,19235.0762
2023-04-09T10:39:39.161Z,19236.4609
2023-04-09T10:40:40.735Z,19232.6152
2023-04-09T10:41:42.442Z,19228.1543
2023-04-09T10:42:44.143Z,19223.6152
2023-04-09T10:43:45.751Z,19226.1543
2023-04-09T10:44:47.415Z,19230.4609
2023-04-09T10:45:49.061Z,19233.3848
2023-04-09T10:46:50.803Z,19233.0000
2023-04-09T10:47:52.842Z,19229.4609
2023-04-09T10:48:54.131Z,19222.9238
2023-04-09T10:49:55.708Z,19223.7695
2023-04-09T10:50:57.322Z,19234.2305
2023-04-09T10:51:59.000Z,19234.5391
2023-04-09T10:53:00.735Z,19229.6152
2023-04-09T10:54:02.298Z,19227.0762
2023-04-09T10:55:03.913Z,19225.4609
2023-04-09T10:56:05.562Z,19222.9238
2023-04-09T10:57:07.307Z,19232.1543
2023-04-09T10:58:11.296Z,19229.6152
2023-04-09T10:59:10.595Z,19227.1543
2023-04-09T11:00:12.541Z,19221.2305
2023-04-09T11:01:13.851Z,19219.6152
2023-04-09T11:02:15.564Z,19223.5391
2023-04-09T11:03:17.370Z,19231.0762
2023-04-09T11:04:18.648Z,19228.2305
2023-04-09T11:05:20.320Z,19224.0000
2023-04-09T11:06:21.984Z,19221.9238
2023-04-09T11:07:23.692Z,19221.6914
2023-04-09T11:08:25.313Z,19221.0000
2023-04-09T11:09:26.910Z,19226.5391
2023-04-09T11:10:28.578Z,19228.3086
2023-04-09T11:11:30.241Z,19224.8457
2023-04-09T11:12:31.878Z,19219.3848
2023-04-09T11:13:33.541Z,19218.1543
2023-04-09T11:14:35.180Z,19221.0762
2023-04-09T11:15:36.826Z,19229.7695
2023-04-09T11:16:38.664Z,19226.1543
2023-04-09T11:17:40.277Z,19222.1543
2023-04-09T11:18:42.172Z,19223.8457
2023-04-09T11:19:43.504Z,19216.9238
2023-04-09T11:20:45.078Z,19223.2305
2023-04-09T11:21:46.817Z,19217.0000
2023-04-09T11:22:48.419Z,19226.0762
2023-04-09T11:23:50.155Z,19218.6152